createdAt,value
2018-05-13T00:02:24.375Z,97206.07
2018-05-13T00:04:52.638Z,97202.83
2018-05-13T00:07:20.898Z,97210.20
2018-05-13T00:09:49.900Z,97207.50
2018-05-13T00:12:18.155Z,97207.70
2018-05-13T00:14:46.408Z,97207.04
2018-05-13T00:17:14.640Z,97203.73
2018-05-13T00:19:44.042Z,97207.25
2018-05-13T00:22:12.279Z,97192.50
2018-05-13T00:24:40.546Z,97194.78
2018-05-13T00:27:10.287Z,97198.98
2018-05-13T00:29:39.371Z,97198.14
2018-05-13T00:32:08.748Z,97197.79
2018-05-13T00:34:36.999Z,97188.99
2018-05-13T00:37:05.248Z,97182.22
2018-05-13T00:39:33.510Z,97184.02
2018-05-13T00:42:01.787Z,97186.48
2018-05-13T00:44:30.148Z,97187.70
2018-05-13T00:46:58.399Z,97183.50
2018-05-13T00:49:28.162Z,97183.76
2018-05-13T00:51:57.166Z,97183.00
2018-05-13T00:54:43.939Z,97180.39
2018-05-13T00:57:12.267Z,97181.41
2018-05-13T00:59:41.291Z,97174.11
2018-05-13T01:02:09.527Z,97180.46
2018-05-13T01:04:38.555Z,97180.00
2018-05-13T01:07:07.554Z,97185.96
2018-05-13T01:09:36.582Z,97179.86
2018-05-13T01:12:04.819Z,97180.03
2018-05-13T01:14:33.080Z,97178.63
2018-05-13T01:17:01.298Z,97192.94
2018-05-13T01:19:29.566Z,97186.86
2018-05-13T01:21:57.835Z,97190.16
2018-05-13T01:24:27.219Z,97188.72
2018-05-13T01:26:55.537Z,97183.19
2018-05-13T01:29:24.551Z,97180.94
2018-05-13T01:31:54.134Z,97186.21
2018-05-13T01:34:22.391Z,97201.53
2018-05-13T01:36:50.639Z,97191.22
2018-05-13T01:39:19.663Z,97187.73
2018-05-13T01:41:47.903Z,97197.10
2018-05-13T01:44:16.234Z,97199.73
2018-05-13T01:46:45.240Z,97206.52
2018-05-13T01:49:13.470Z,97207.16
2018-05-13T01:51:41.806Z,97202.17
2018-05-13T01:54:10.830Z,97202.83
2018-05-13T01:56:39.125Z,97209.53
2018-05-13T01:59:07.352Z,97211.53
2018-05-13T02:01:35.598Z,97207.95
2018-05-13T02:04:03.833Z,97203.12
2018-05-13T02:06:32.103Z,97208.86
2018-05-13T02:09:00.324Z,97219.59
2018-05-13T02:11:28.571Z,97208.36
2018-05-13T02:13:56.806Z,97229.21
2018-05-13T02:16:25.059Z,97208.27
2018-05-13T02:18:53.634Z,97207.98
2018-05-13T02:21:21.895Z,97208.66
2018-05-13T02:23:51.715Z,97208.75
2018-05-13T02:26:21.331Z,97212.20
2018-05-13T02:28:50.708Z,97210.33
2018-05-13T02:31:18.981Z,97206.57
2018-05-13T02:33:47.228Z,97209.39
2018-05-13T02:36:15.472Z,97215.65
2018-05-13T02:38:43.713Z,97210.47
2018-05-13T02:41:12.727Z,97211.19
2018-05-13T02:43:41.727Z,97221.45
2018-05-13T02:46:10.755Z,97215.16
2018-05-13T02:48:38.991Z,97207.64
2018-05-13T02:51:07.243Z,97209.25
2018-05-13T02:53:35.480Z,97205.20
2018-05-13T02:56:03.732Z,97199.68
2018-05-13T02:58:32.001Z,97204.02
2018-05-13T03:01:00.234Z,97193.34
2018-05-13T03:03:28.467Z,97193.92
2018-05-13T03:05:56.707Z,97196.05
2018-05-13T03:08:25.719Z,97198.36
2018-05-13T03:10:53.951Z,97200.22
2018-05-13T03:13:22.194Z,97206.78
2018-05-13T03:15:50.422Z,97209.70
2018-05-13T03:18:18.670Z,97211.34
2018-05-13T03:20:46.903Z,97205.13
2018-05-13T03:23:15.918Z,97202.47
2018-05-13T03:25:44.166Z,97205.20
2018-05-13T03:28:12.406Z,97212.75
2018-05-13T03:30:40.650Z,97208.11
2018-05-13T03:33:09.761Z,97216.38
2018-05-13T03:35:38.768Z,97217.17
2018-05-13T03:38:08.371Z,97216.52
2018-05-13T03:40:36.617Z,97219.59
2018-05-13T03:43:04.867Z,97222.62
2018-05-13T03:45:33.868Z,97227.59
2018-05-13T03:48:03.255Z,97222.58
2018-05-13T03:50:31.523Z,97221.81
2018-05-13T03:52:59.795Z,97222.58
2018-05-13T03:55:28.023Z,97227.00
2018-05-13T03:57:56.284Z,97223.34
2018-05-13T04:00:24.521Z,97221.55
2018-05-13T04:02:52.791Z,97219.76
2018-05-13T04:05:21.031Z,97222.30
2018-05-13T04:11:37.459Z,97217.09
2018-05-13T04:14:23.568Z,97225.89
2018-05-13T04:16:51.887Z,97220.23
2018-05-13T04:19:20.898Z,97218.48
2018-05-13T04:21:49.136Z,97223.96
2018-05-13T04:24:17.447Z,97232.20
2018-05-13T04:26:46.455Z,97234.03
2018-05-13T04:29:15.483Z,97225.79
2018-05-13T04:31:44.487Z,97234.45
2018-05-13T04:34:12.738Z,97236.55
2018-05-13T04:36:41.064Z,97236.45
2018-05-13T04:39:09.311Z,97241.16
2018-05-13T04:41:37.632Z,97239.66
2018-05-13T04:44:06.731Z,97246.44
2018-05-13T04:46:35.739Z,97246.39
2018-05-13T04:49:05.341Z,97240.72
2018-05-13T04:51:33.606Z,97253.83
2018-05-13T04:54:03.003Z,97251.59
2018-05-13T04:56:31.247Z,97261.01
2018-05-13T04:59:00.635Z,97269.46
2018-05-13T05:01:28.866Z,97267.91
2018-05-13T05:03:57.893Z,97271.81
2018-05-13T05:06:26.124Z,97267.52
2018-05-13T05:08:54.489Z,97269.66
2018-05-13T05:11:22.615Z,97261.67
2018-05-13T05:13:50.875Z,97258.30
2018-05-13T05:16:19.105Z,97257.31
2018-05-13T05:18:48.115Z,97259.79
2018-05-13T05:21:17.130Z,97265.48
2018-05-13T05:23:46.131Z,97271.13
2018-05-13T05:26:15.155Z,97273.84
2018-05-13T05:28:43.388Z,97263.97
2018-05-13T05:31:11.719Z,97272.91
2018-05-13T05:33:40.733Z,97277.52
2018-05-13T05:36:10.489Z,97286.48
2018-05-13T05:38:38.760Z,97277.97
2018-05-13T05:41:07.023Z,97275.78
2018-05-13T05:43:36.023Z,97278.27
2018-05-13T05:46:05.427Z,97279.77
2018-05-13T05:48:33.667Z,97280.25
2018-05-13T05:51:03.090Z,97285.86
2018-05-13T05:53:31.443Z,97286.00
2018-05-13T05:56:00.475Z,97291.73
2018-05-13T05:58:28.707Z,97290.19
2018-05-13T06:00:56.966Z,97294.16
2018-05-13T06:03:25.959Z,97286.73
2018-05-13T06:05:54.264Z,97287.72
2018-05-13T06:08:23.219Z,97293.95
2018-05-13T06:10:52.228Z,97285.06
2018-05-13T06:13:21.229Z,97284.97
2018-05-13T06:15:50.262Z,97285.31
2018-05-13T06:18:19.247Z,97279.47
2018-05-13T06:20:48.643Z,97280.02
2018-05-13T06:23:16.880Z,97282.59
2018-05-13T06:25:45.138Z,97280.59
2018-05-13T06:28:14.242Z,97282.25
2018-05-13T06:30:43.264Z,97276.09
2018-05-13T06:33:12.276Z,97269.74
2018-05-13T06:35:40.527Z,97263.03
2018-05-13T06:38:08.762Z,97266.70
2018-05-13T06:40:37.780Z,97261.80
2018-05-13T06:43:06.019Z,97267.05
2018-05-13T06:45:34.262Z,97265.17
2018-05-13T06:48:02.519Z,97265.87
2018-05-13T06:50:30.771Z,97264.60
2018-05-13T06:52:59.023Z,97264.37
2018-05-13T06:55:27.261Z,97259.55
2018-05-13T06:57:55.539Z,97252.94
2018-05-13T07:00:23.857Z,97252.14
2018-05-13T07:02:52.904Z,97261.17
2018-05-13T07:05:21.887Z,97259.81
2018-05-13T07:07:50.135Z,97261.64
2018-05-13T07:10:18.419Z,97256.67
2018-05-13T07:12:46.647Z,97264.17
2018-05-13T07:15:14.895Z,97263.19
2018-05-13T07:17:43.143Z,97262.55
2018-05-13T07:20:11.375Z,97262.47
2018-05-13T07:22:39.635Z,97267.30
2018-05-13T07:25:07.883Z,97266.32
2018-05-13T07:27:37.010Z,97267.52
2018-05-13T07:30:05.242Z,97264.36
2018-05-13T07:32:33.499Z,97267.09
2018-05-13T07:35:01.806Z,97260.94
2018-05-13T07:37:30.059Z,97265.57
2018-05-13T07:39:58.291Z,97262.34
2018-05-13T07:42:26.550Z,97269.98
2018-05-13T07:44:54.781Z,97263.47
2018-05-13T07:47:23.083Z,97261.81
2018-05-13T07:49:52.824Z,97262.77
2018-05-13T07:52:21.848Z,97262.30
2018-05-13T07:54:50.074Z,97258.09
2018-05-13T07:57:18.316Z,97260.30
2018-05-13T07:59:46.566Z,97255.44
2018-05-13T08:02:14.803Z,97249.70
2018-05-13T08:04:43.061Z,97248.67
2018-05-13T08:07:12.098Z,97244.72
2018-05-13T08:09:40.348Z,97254.08
2018-05-13T08:12:08.575Z,97252.55
2018-05-13T08:14:36.904Z,97253.00
2018-05-13T08:17:05.131Z,97250.05
2018-05-13T08:19:34.164Z,97249.92
2018-05-13T08:22:02.429Z,97259.47
2018-05-13T08:24:31.465Z,97256.95
2018-05-13T08:27:00.467Z,97257.73
2018-05-13T08:29:28.722Z,97259.29
2018-05-13T08:31:57.785Z,97273.28
2018-05-13T08:34:26.040Z,97270.84
2018-05-13T08:36:54.278Z,97273.94
2018-05-13T08:39:22.544Z,97268.23
2018-05-13T08:41:50.788Z,97270.11
2018-05-13T08:44:19.023Z,97266.41
2018-05-13T08:46:47.268Z,97267.80
2018-05-13T08:49:16.386Z,97255.94
2018-05-13T08:51:45.396Z,97263.45
2018-05-13T08:54:14.410Z,97260.86
2018-05-13T08:56:42.675Z,97264.16
2018-05-13T08:59:11.720Z,97261.53
2018-05-13T09:01:40.000Z,97258.06
2018-05-13T09:04:08.257Z,97257.52
2018-05-13T09:06:37.566Z,97260.91
2018-05-13T09:09:06.616Z,97261.88
2018-05-13T09:11:34.893Z,97257.45
2018-05-13T09:14:03.206Z,97267.05
2018-05-13T09:16:31.443Z,97255.78
2018-05-13T09:18:59.746Z,97258.77
2018-05-13T09:21:28.755Z,97256.08
2018-05-13T09:23:57.013Z,97259.82
2018-05-13T09:26:25.323Z,97260.72
2018-05-13T09:28:54.354Z,97259.34
2018-05-13T09:31:22.632Z,97253.85
2018-05-13T09:33:51.640Z,97260.41
2018-05-13T09:36:19.916Z,97263.57
2018-05-13T09:38:48.921Z,97262.80
2018-05-13T09:41:17.940Z,97263.56
2018-05-13T09:43:46.174Z,97276.72
2018-05-13T09:46:14.457Z,97265.30
2018-05-13T09:48:42.726Z,97267.81
2018-05-13T09:51:10.986Z,97264.31
2018-05-13T09:53:40.009Z,97266.09
2018-05-13T09:56:09.018Z,97261.97
2018-05-13T09:58:37.306Z,97265.06
2018-05-13T10:01:05.575Z,97263.59
2018-05-13T10:03:34.608Z,97255.91
2018-05-13T10:06:02.902Z,97257.34
2018-05-13T10:08:32.003Z,97257.89
2018-05-13T10:11:00.383Z,97253.77
2018-05-13T10:13:29.339Z,97268.27
2018-05-13T10:15:57.652Z,97267.02
2018-05-13T10:18:26.671Z,97265.23
2018-05-13T10:20:55.784Z,97270.42
2018-05-13T10:23:24.824Z,97264.25
2018-05-13T10:25:53.125Z,97268.08
2018-05-13T10:28:21.389Z,97274.22
2018-05-13T10:30:49.656Z,97279.20
2018-05-13T10:33:18.666Z,97273.54
2018-05-13T10:35:47.728Z,97276.80
2018-05-13T10:38:15.958Z,97271.93
2018-05-13T10:40:44.993Z,97282.95
2018-05-13T10:43:13.256Z,97272.75
2018-05-13T10:45:42.299Z,97270.08
2018-05-13T10:48:10.546Z,97271.05
2018-05-13T10:50:39.581Z,97269.23
2018-05-13T10:53:07.827Z,97266.90
2018-05-13T10:55:36.090Z,97266.81
2018-05-13T10:58:05.745Z,97264.73
2018-05-13T11:00:34.752Z,97266.88
2018-05-13T11:03:03.055Z,97263.34
2018-05-13T11:05:31.311Z,97262.54
2018-05-13T11:07:59.596Z,97254.42
2018-05-13T11:10:27.831Z,97256.33
2018-05-13T11:12:56.107Z,97256.33
2018-05-13T11:15:25.136Z,97256.39
2018-05-13T11:17:53.399Z,97256.41
2018-05-13T11:20:22.449Z,97254.91
2018-05-13T11:22:50.724Z,97246.61
2018-05-13T11:25:19.032Z,97251.19
2018-05-13T11:27:47.292Z,97248.03
2018-05-13T11:30:15.680Z,97238.10
2018-05-13T11:32:44.723Z,97239.86
2018-05-13T11:35:12.987Z,97230.36
2018-05-13T11:37:41.271Z,97230.40
2018-05-13T11:40:09.533Z,97231.23
2018-05-13T11:42:38.775Z,97228.16
2018-05-13T11:45:07.023Z,97229.09
2018-05-13T11:47:35.322Z,97226.95
2018-05-13T11:50:04.350Z,97222.55
2018-05-13T11:52:32.654Z,97225.33
2018-05-13T11:55:01.453Z,97222.50
2018-05-13T11:57:29.726Z,97217.22
2018-05-13T11:59:58.747Z,97219.98
2018-05-13T12:02:27.100Z,97212.75
2018-05-13T12:04:56.032Z,97214.89
2018-05-13T12:07:25.082Z,97205.19
2018-05-13T12:09:53.373Z,97209.30
2018-05-13T12:12:21.700Z,97212.20
2018-05-13T12:14:50.726Z,97208.44
2018-05-13T12:17:19.748Z,97210.36
2018-05-13T12:19:48.006Z,97205.54
2018-05-13T12:22:17.602Z,97207.41
2018-05-13T12:24:45.902Z,97195.66
2018-05-13T12:27:14.236Z,97201.20
2018-05-13T12:29:42.525Z,97187.45
2018-05-13T12:32:10.795Z,97180.65
2018-05-13T12:34:39.873Z,97178.61
2018-05-13T12:37:08.104Z,97185.98
2018-05-13T12:39:37.261Z,97169.59
2018-05-13T12:42:05.515Z,97176.16
2018-05-13T12:44:33.828Z,97166.55
2018-05-13T12:47:02.130Z,97169.62
2018-05-13T12:49:30.398Z,97163.47
2018-05-13T12:51:58.656Z,97167.84
2018-05-13T12:54:26.915Z,97166.41
2018-05-13T12:56:55.948Z,97163.75
2018-05-13T12:59:25.068Z,97163.72
2018-05-13T13:01:53.305Z,97165.27
2018-05-13T13:04:22.371Z,97159.59
2018-05-13T13:06:50.622Z,97153.44
2018-05-13T13:09:18.882Z,97148.13
2018-05-13T13:11:47.114Z,97155.66
2018-05-13T13:14:15.400Z,97154.91
2018-05-13T13:16:44.443Z,97156.73
2018-05-13T13:19:12.725Z,97149.77
2018-05-13T13:21:40.976Z,97147.34
2018-05-13T13:24:10.020Z,97144.10
2018-05-13T13:26:38.271Z,97142.53
2018-05-13T13:29:07.308Z,97140.98
2018-05-13T13:31:35.576Z,97136.45
2018-05-13T13:34:04.640Z,97127.53
2018-05-13T13:36:33.001Z,97128.94
2018-05-13T13:39:01.210Z,97126.64
2018-05-13T13:41:29.462Z,97124.77
2018-05-13T13:43:57.739Z,97120.77
2018-05-13T13:46:26.781Z,97118.27
2018-05-13T13:48:55.044Z,97113.17
2018-05-13T13:51:24.083Z,97123.42
2018-05-13T13:53:52.355Z,97117.99
2018-05-13T13:56:20.629Z,97120.84
2018-05-13T13:58:49.639Z,97118.66
2018-05-13T14:01:17.899Z,97112.52
2018-05-13T14:03:46.903Z,97107.25
2018-05-13T14:06:15.201Z,97112.78
2018-05-13T14:08:43.455Z,97118.66
2018-05-13T14:11:12.526Z,97128.65
2018-05-13T14:13:40.781Z,97126.17
2018-05-13T14:16:09.066Z,97121.28
2018-05-13T14:18:37.318Z,97114.06
2018-05-13T14:21:05.595Z,97116.65
2018-05-13T14:23:33.839Z,97111.59
2018-05-13T14:26:02.904Z,97110.05
2018-05-13T14:28:32.011Z,97113.25
2018-05-13T14:31:00.277Z,97114.73
2018-05-13T14:33:28.542Z,97112.84
2018-05-13T14:35:57.583Z,97104.63
2018-05-13T14:38:25.847Z,97100.05
2018-05-13T14:40:54.896Z,97099.48
2018-05-13T14:43:23.150Z,97098.51
2018-05-13T14:45:51.415Z,97096.19
2018-05-13T14:48:20.430Z,97093.78
2018-05-13T14:50:49.482Z,97088.42
2018-05-13T14:53:17.729Z,97087.99
2018-05-13T14:55:46.771Z,97086.20
2018-05-13T14:58:15.022Z,97077.71
2018-05-13T15:00:44.060Z,97080.45
2018-05-13T15:03:12.303Z,97074.99
2018-05-13T15:05:41.332Z,97082.31
2018-05-13T15:08:10.360Z,97077.94
2018-05-13T15:10:38.623Z,97076.52
2018-05-13T15:13:08.666Z,97079.56
2018-05-13T15:15:36.939Z,97075.66
2018-05-13T15:18:05.215Z,97072.28
2018-05-13T15:20:33.487Z,97072.20
2018-05-13T15:23:01.790Z,97066.19
2018-05-13T15:25:30.047Z,97068.24
2018-05-13T15:27:58.308Z,97080.50
2018-05-13T15:30:26.558Z,97064.81
2018-05-13T15:32:54.831Z,97063.05
2018-05-13T15:35:23.071Z,97068.31
2018-05-13T15:37:51.350Z,97074.05
2018-05-13T15:40:20.391Z,97075.51
2018-05-13T15:42:48.755Z,97074.91
2018-05-13T15:45:16.919Z,97069.12
2018-05-13T15:47:45.954Z,97073.38
2018-05-13T15:50:14.191Z,97068.80
2018-05-13T15:52:42.469Z,97060.95
2018-05-13T15:55:10.792Z,97061.77
2018-05-13T15:57:39.003Z,97065.25
2018-05-13T16:00:08.040Z,97064.89
2018-05-13T16:02:36.323Z,97060.03
2018-05-13T16:05:04.592Z,97064.74
2018-05-13T16:07:32.865Z,97069.27
2018-05-13T16:10:01.189Z,97075.59
2018-05-13T16:12:29.457Z,97066.40
2018-05-13T16:14:57.703Z,97064.63
2018-05-13T16:17:26.021Z,97059.06
2018-05-13T16:19:55.144Z,97062.29
2018-05-13T16:22:23.439Z,97067.52
2018-05-13T16:24:51.706Z,97069.63
2018-05-13T16:27:20.775Z,97064.00
2018-05-13T16:29:49.151Z,97061.98
2018-05-13T16:32:17.451Z,97064.20
2018-05-13T16:34:45.687Z,97060.15
2018-05-13T16:37:14.744Z,97056.01
2018-05-13T16:39:43.020Z,97063.59
2018-05-13T16:42:11.373Z,97059.25
2018-05-13T16:44:40.394Z,97059.69
2018-05-13T16:47:08.639Z,97051.45
2018-05-13T16:49:36.906Z,97055.02
2018-05-13T16:52:05.171Z,97050.78
2018-05-13T16:54:33.457Z,97045.83
2018-05-13T16:57:01.723Z,97043.01
2018-05-13T16:59:31.144Z,97039.84
2018-05-13T17:02:00.158Z,97048.24
2018-05-13T17:04:29.188Z,97049.18
2018-05-13T17:06:57.448Z,97046.23
2018-05-13T17:09:25.728Z,97043.73
2018-05-13T17:11:53.978Z,97037.58
2018-05-13T17:14:22.253Z,97035.77
2018-05-13T17:16:51.280Z,97033.62
2018-05-13T17:19:19.558Z,97037.31
2018-05-13T17:21:47.815Z,97033.01
2018-05-13T17:24:16.075Z,97026.23
2018-05-13T17:26:45.110Z,97024.50
2018-05-13T17:29:13.401Z,97024.08
2018-05-13T17:31:41.667Z,97015.72
2018-05-13T17:34:10.759Z,97012.30
2018-05-13T17:36:38.928Z,97007.22
2018-05-13T17:39:07.213Z,97017.73
2018-05-13T17:41:35.470Z,97015.31
2018-05-13T17:44:03.719Z,97028.97
2018-05-13T17:46:33.127Z,97032.31
2018-05-13T17:49:02.177Z,97029.25
2018-05-13T17:51:30.446Z,97032.73
2018-05-13T17:53:59.463Z,97030.43
2018-05-13T17:56:27.741Z,97026.64
2018-05-13T17:58:56.784Z,97028.58
2018-05-13T18:01:25.055Z,97026.63
2018-05-13T18:03:53.321Z,97028.65
2018-05-13T18:06:22.932Z,97023.32
2018-05-13T18:08:51.951Z,97026.14
2018-05-13T18:11:20.979Z,97035.55
2018-05-13T18:13:49.227Z,97027.02
2018-05-13T18:16:18.238Z,97033.65
2018-05-13T18:18:47.250Z,97030.48
2018-05-13T18:21:16.380Z,97032.53
2018-05-13T18:23:44.626Z,97030.87
2018-05-13T18:26:12.887Z,97023.33
2018-05-13T18:28:41.141Z,97031.50
2018-05-13T18:31:09.479Z,97026.89
2018-05-13T18:33:38.428Z,97028.84
2018-05-13T18:36:07.459Z,97023.53
2018-05-13T18:38:35.721Z,97024.31
2018-05-13T18:41:04.768Z,97029.31
2018-05-13T18:43:33.042Z,97025.30
2018-05-13T18:46:01.312Z,97022.92
2018-05-13T18:48:30.321Z,97021.15
2018-05-13T18:50:59.447Z,97017.94
2018-05-13T18:53:27.677Z,97017.22
2018-05-13T18:55:55.952Z,97028.89
2018-05-13T18:58:24.313Z,97023.54
2018-05-13T19:00:52.579Z,97024.79
2018-05-13T19:03:21.601Z,97013.02
2018-05-13T19:05:49.885Z,97019.08
2018-05-13T19:08:18.887Z,97016.99
2018-05-13T19:10:47.928Z,97013.73
2018-05-13T19:13:16.168Z,97010.84
2018-05-13T19:15:44.466Z,97016.61
2018-05-13T19:18:13.490Z,97017.18
2018-05-13T19:20:41.754Z,97017.16
2018-05-13T19:23:11.511Z,97021.50
2018-05-13T19:25:39.804Z,97016.49
2018-05-13T19:28:08.059Z,97018.23
2018-05-13T19:30:37.096Z,97023.67
2018-05-13T19:33:05.360Z,97020.03
2018-05-13T19:35:34.401Z,97022.14
2018-05-13T19:38:02.796Z,97028.48
2018-05-13T19:40:32.148Z,97034.42
2018-05-13T19:43:00.427Z,97035.86
2018-05-13T19:45:28.890Z,97038.80
2018-05-13T19:47:57.167Z,97042.06
2018-05-13T19:50:25.422Z,97060.39
2018-05-13T19:52:53.737Z,97042.92
2018-05-13T19:55:21.983Z,97049.66
2018-05-13T19:57:50.239Z,97049.44
2018-05-13T20:00:18.492Z,97053.30
2018-05-13T20:02:47.634Z,97053.30
2018-05-13T20:05:15.798Z,97047.39
2018-05-13T20:07:44.838Z,97052.16
2018-05-13T20:10:13.088Z,97050.98
2018-05-13T20:12:42.122Z,97046.37
2018-05-13T20:15:10.372Z,97041.98
2018-05-13T20:17:39.402Z,97037.40
2018-05-13T20:20:07.649Z,97033.39
2018-05-13T20:25:48.813Z,97020.98
2018-05-13T20:28:17.071Z,97015.41
2018-05-13T20:30:45.311Z,97014.14
2018-05-13T20:33:13.579Z,97010.10
2018-05-13T20:35:42.584Z,97008.27
2018-05-13T20:38:10.830Z,97021.19
2018-05-13T20:40:39.072Z,97023.16
2018-05-13T20:43:07.335Z,97031.95
2018-05-13T20:45:36.354Z,97034.88
2018-05-13T20:48:04.650Z,97037.79
2018-05-13T20:50:32.924Z,97043.23
2018-05-13T20:55:43.246Z,97049.30
2018-05-13T20:58:11.528Z,97053.98
2018-05-13T21:00:39.753Z,97046.91
2018-05-13T21:03:08.026Z,97045.41
2018-05-13T21:05:36.305Z,97043.94
2018-05-13T21:08:04.564Z,97051.98
2018-05-13T21:10:32.839Z,97047.01
2018-05-13T21:13:01.096Z,97047.14
2018-05-13T21:15:30.890Z,97051.55
2018-05-13T21:17:59.136Z,97047.78
2018-05-13T21:20:28.733Z,97052.39
2018-05-13T21:22:56.987Z,97060.30
2018-05-13T21:25:25.236Z,97060.95
2018-05-13T21:27:53.483Z,97053.92
2018-05-13T21:30:21.727Z,97048.66
2018-05-13T21:32:50.764Z,97050.42
2018-05-13T21:35:19.017Z,97057.97
2018-05-13T21:37:48.095Z,97053.27
2018-05-13T21:40:17.047Z,97046.12
2018-05-13T21:42:45.279Z,97054.00
2018-05-13T21:45:14.318Z,97057.73
2018-05-13T21:47:42.561Z,97054.53
2018-05-13T21:50:10.811Z,97057.88
2018-05-13T21:52:39.820Z,97054.23
2018-05-13T21:55:08.835Z,97056.50
2018-05-13T21:57:37.082Z,97056.94
2018-05-13T22:00:06.107Z,97054.94
2018-05-13T22:02:34.350Z,97059.80
2018-05-13T22:05:02.619Z,97058.23
2018-05-13T22:07:30.882Z,97055.31
2018-05-13T22:10:00.271Z,97052.48
2018-05-13T22:12:28.514Z,97045.06
2018-05-13T22:14:56.771Z,97044.47
2018-05-13T22:17:25.938Z,97035.69
2018-05-13T22:19:54.164Z,97030.58
2018-05-13T22:22:23.187Z,97028.05
2018-05-13T22:24:52.210Z,97022.94
2018-05-13T22:27:20.434Z,97021.34
2018-05-13T22:29:48.704Z,97019.36
2018-05-13T22:32:16.950Z,97027.91
2018-05-13T22:34:45.947Z,97023.88
2018-05-13T22:37:14.967Z,97022.67
2018-05-13T22:39:43.970Z,97025.47
2018-05-13T22:42:12.982Z,97019.90
2018-05-13T22:44:41.990Z,97016.09
2018-05-13T22:47:11.738Z,97017.16
2018-05-13T22:49:39.979Z,97016.09
2018-05-13T22:52:08.241Z,97011.59
2018-05-13T22:54:36.531Z,97016.09
2018-05-13T22:57:04.791Z,97021.73
2018-05-13T22:59:33.037Z,97016.23
2018-05-13T23:02:01.310Z,97018.63
2018-05-13T23:04:29.545Z,97023.41
2018-05-13T23:06:57.807Z,97030.63
2018-05-13T23:09:26.127Z,97025.05
2018-05-13T23:11:54.375Z,97022.14
2018-05-13T23:14:22.610Z,97015.27
2018-05-13T23:16:50.888Z,97013.35
2018-05-13T23:19:19.132Z,97020.70
2018-05-13T23:21:47.391Z,97012.98
2018-05-13T23:24:15.639Z,97007.11
2018-05-13T23:26:44.659Z,97009.16
2018-05-13T23:29:12.956Z,97006.05
2018-05-13T23:31:41.970Z,97007.64
2018-05-13T23:34:10.206Z,97007.38
2018-05-13T23:36:38.464Z,97008.28
2018-05-13T23:39:06.711Z,97004.64
2018-05-13T23:41:35.731Z,97009.61
2018-05-13T23:44:03.995Z,97012.55
2018-05-13T23:46:33.032Z,97011.52
2018-05-13T23:49:01.340Z,97014.59
2018-05-13T23:51:29.597Z,97012.98
2018-05-13T23:53:58.595Z,97016.97
2018-05-13T23:56:28.344Z,97007.74
2018-05-13T23:58:56.602Z,97009.75
